sensor_id;sensor_type;location;lat;lon;timestamp;pressure;altitude;pressure_sealevel;temperature;humidity
11053;BME280;55230;42.602;23.470;2023-07-29T00:01:33;93407.06;;;17.95;62.10
11053;BME280;55230;42.602;23.470;2023-07-29T00:04:00;93400.63;;;17.92;62.65
11053;BME280;55230;42.602;23.470;2023-07-29T00:06:26;93411.31;;;17.90;63.06
11053;BME280;55230;42.602;23.470;2023-07-29T00:08:53;93411.28;;;17.85;64.15
11053;BME280;55230;42.602;23.470;2023-07-29T00:11:20;93402.84;;;17.66;65.79
11053;BME280;55230;42.602;23.470;2023-07-29T00:13:46;93407.53;;;17.66;65.49
11053;BME280;55230;42.602;23.470;2023-07-29T00:16:16;93405.31;;;17.59;65.62
11053;BME280;55230;42.602;23.470;2023-07-29T00:18:43;93409.25;;;17.47;66.73
11053;BME280;55230;42.602;23.470;2023-07-29T00:21:09;93418.38;;;17.44;67.15
11053;BME280;55230;42.602;23.470;2023-07-29T00:23:36;93422.59;;;17.39;67.40
11053;BME280;55230;42.602;23.470;2023-07-29T00:26:02;93412.88;;;17.32;67.61
11053;BME280;55230;42.602;23.470;2023-07-29T00:28:29;93407.94;;;17.25;68.20
11053;BME280;55230;42.602;23.470;2023-07-29T00:30:55;93403.94;;;17.15;70.01
11053;BME280;55230;42.602;23.470;2023-07-29T00:33:23;93398.00;;;17.11;70.04
11053;BME280;55230;42.602;23.470;2023-07-29T00:35:50;93400.69;;;17.06;70.21
11053;BME280;55230;42.602;23.470;2023-07-29T00:38:16;93406.63;;;17.04;71.80
11053;BME280;55230;42.602;23.470;2023-07-29T00:40:43;93416.75;;;16.98;72.32
11053;BME280;55230;42.602;23.470;2023-07-29T00:43:09;93412.00;;;16.88;72.93
11053;BME280;55230;42.602;23.470;2023-07-29T00:45:36;93415.94;;;16.81;73.59
11053;BME280;55230;42.602;23.470;2023-07-29T00:48:03;93409.72;;;16.75;73.55
11053;BME280;55230;42.602;23.470;2023-07-29T00:50:31;93410.19;;;16.68;73.54
11053;BME280;55230;42.602;23.470;2023-07-29T00:52:58;93399.47;;;16.59;74.75
11053;BME280;55230;42.602;23.470;2023-07-29T00:55:25;93398.25;;;16.60;74.55
11053;BME280;55230;42.602;23.470;2023-07-29T00:57:52;93390.78;;;16.55;74.82
11053;BME280;55230;42.602;23.470;2023-07-29T01:00:19;93401.91;;;16.52;75.36
11053;BME280;55230;42.602;23.470;2023-07-29T01:02:46;93395.22;;;16.47;75.75
11053;BME280;55230;42.602;23.470;2023-07-29T01:05:13;93391.44;;;16.45;76.26
11053;BME280;55230;42.602;23.470;2023-07-29T01:07:44;93400.09;;;16.43;76.70
11053;BME280;55230;42.602;23.470;2023-07-29T01:10:15;93393.66;;;16.41;77.15
11053;BME280;55230;42.602;23.470;2023-07-29T01:12:47;93392.66;;;16.38;77.90
11053;BME280;55230;42.602;23.470;2023-07-29T01:15:16;93392.16;;;16.34;78.38
11053;BME280;55230;42.602;23.470;2023-07-29T01:17:43;93394.59;;;16.32;78.64
11053;BME280;55230;42.602;23.470;2023-07-29T01:20:13;93390.63;;;16.33;78.81
11053;BME280;55230;42.602;23.470;2023-07-29T01:22:40;93390.63;;;16.33;79.01
11053;BME280;55230;42.602;23.470;2023-07-29T01:25:09;93393.09;;;16.31;78.90
11053;BME280;55230;42.602;23.470;2023-07-29T01:27:35;93394.06;;;16.28;79.07
11053;BME280;55230;42.602;23.470;2023-07-29T01:30:02;93397.78;;;16.25;78.62
11053;BME280;55230;42.602;23.470;2023-07-29T01:32:29;93395.28;;;16.22;77.88
11053;BME280;55230;42.602;23.470;2023-07-29T01:35:00;93400.94;;;16.18;77.95
11053;BME280;55230;42.602;23.470;2023-07-29T01:37:30;93393.25;;;16.16;77.60
11053;BME280;55230;42.602;23.470;2023-07-29T01:39:58;93391.53;;;16.19;77.21
11053;BME280;55230;42.602;23.470;2023-07-29T01:42:28;93395.50;;;16.18;77.07
11053;BME280;55230;42.602;23.470;2023-07-29T01:44:55;93395.72;;;16.14;77.44
11053;BME280;55230;42.602;23.470;2023-07-29T01:47:22;93394.97;;;16.14;77.18
11053;BME280;55230;42.602;23.470;2023-07-29T01:49:48;93396.47;;;16.15;77.24
11053;BME280;55230;42.602;23.470;2023-07-29T01:52:15;93394.97;;;16.14;77.30
11053;BME280;55230;42.602;23.470;2023-07-29T01:54:41;93400.34;;;16.08;77.74
11053;BME280;55230;42.602;23.470;2023-07-29T01:57:08;93398.38;;;16.09;78.30
11053;BME280;55230;42.602;23.470;2023-07-29T01:59:36;93387.25;;;16.07;78.03
11053;BME280;55230;42.602;23.470;2023-07-29T02:02:02;93389.75;;;16.10;78.15
11053;BME280;55230;42.602;23.470;2023-07-29T02:04:29;93390.22;;;16.09;78.43
11053;BME280;55230;42.602;23.470;2023-07-29T02:06:55;93389.97;;;16.07;78.12
11053;BME280;55230;42.602;23.470;2023-07-29T02:09:22;93393.91;;;16.06;78.66
11053;BME280;55230;42.602;23.470;2023-07-29T02:11:48;93399.09;;;16.04;78.60
11053;BME280;55230;42.602;23.470;2023-07-29T02:14:15;93399.38;;;16.06;78.87
11053;BME280;55230;42.602;23.470;2023-07-29T02:16:42;93401.28;;;16.00;78.76
11053;BME280;55230;42.602;23.470;2023-07-29T02:19:09;93400.78;;;15.96;79.16
11053;BME280;55230;42.602;23.470;2023-07-29T02:21:36;93400.50;;;15.94;79.25
11053;BME280;55230;42.602;23.470;2023-07-29T02:24:02;93402.00;;;15.95;79.07
11053;BME280;55230;42.602;23.470;2023-07-29T02:26:29;93401.00;;;15.92;79.32
11053;BME280;55230;42.602;23.470;2023-07-29T02:28:55;93399.28;;;15.95;79.20
11053;BME280;55230;42.602;23.470;2023-07-29T02:31:22;93397.56;;;15.97;78.85
11053;BME280;55230;42.602;23.470;2023-07-29T02:33:51;93406.44;;;15.98;78.49
11053;BME280;55230;42.602;23.470;2023-07-29T02:36:17;93400.56;;;16.05;77.89
11053;BME280;55230;42.602;23.470;2023-07-29T02:38:44;93400.13;;;16.06;77.77
11053;BME280;55230;42.602;23.470;2023-07-29T02:41:11;93393.91;;;16.06;77.59
11053;BME280;55230;42.602;23.470;2023-07-29T02:43:38;93395.41;;;16.07;77.81
11053;BME280;55230;42.602;23.470;2023-07-29T02:46:06;93396.41;;;16.09;77.73
11053;BME280;55230;42.602;23.470;2023-07-29T02:48:32;93392.69;;;16.07;77.68
11053;BME280;55230;42.602;23.470;2023-07-29T02:51:00;93399.63;;;16.08;77.42
11053;BME280;55230;42.602;23.470;2023-07-29T02:53:27;93397.69;;;16.14;76.80
11053;BME280;55230;42.602;23.470;2023-07-29T02:55:53;93386.03;;;16.13;76.93
11053;BME280;55230;42.602;23.470;2023-07-29T02:58:20;93392.72;;;16.12;77.21
11053;BME280;55230;42.602;23.470;2023-07-29T03:00:46;93400.66;;;16.16;76.83
11053;BME280;55230;42.602;23.470;2023-07-29T03:03:13;93401.19;;;16.20;76.36
11053;BME280;55230;42.602;23.470;2023-07-29T03:05:40;93399.69;;;16.19;76.50
11053;BME280;55230;42.602;23.470;2023-07-29T03:08:08;93402.94;;;16.23;76.27
11053;BME280;55230;42.602;23.470;2023-07-29T03:10:35;93409.16;;;16.29;75.70
11053;BME280;55230;42.602;23.470;2023-07-29T03:13:02;93408.44;;;16.29;75.57
11053;BME280;55230;42.602;23.470;2023-07-29T03:15:28;93417.84;;;16.33;75.56
11053;BME280;55230;42.602;23.470;2023-07-29T03:17:55;93411.91;;;16.35;75.15
11053;BME280;55230;42.602;23.470;2023-07-29T03:20:21;93414.13;;;16.31;75.55
11053;BME280;55230;42.602;23.470;2023-07-29T03:22:48;93418.38;;;16.37;75.31
11053;BME280;55230;42.602;23.470;2023-07-29T03:25:16;93416.91;;;16.42;77.47
11053;BME280;55230;42.602;23.470;2023-07-29T03:27:43;93425.56;;;16.40;77.76
11053;BME280;55230;42.602;23.470;2023-07-29T03:30:09;93425.06;;;16.42;77.75
11053;BME280;55230;42.602;23.470;2023-07-29T03:32:39;93420.94;;;16.46;78.91
11053;BME280;55230;42.602;23.470;2023-07-29T03:35:05;93422.44;;;16.47;79.04
11053;BME280;55230;42.602;23.470;2023-07-29T03:37:32;93418.47;;;16.48;78.72
11053;BME280;55230;42.602;23.470;2023-07-29T03:39:58;93422.25;;;16.56;78.43
11053;BME280;55230;42.602;23.470;2023-07-29T03:42:26;93419.41;;;16.45;83.40
11053;BME280;55230;42.602;23.470;2023-07-29T03:44:53;93418.31;;;16.63;83.10
11053;BME280;55230;42.602;23.470;2023-07-29T03:47:19;93423.56;;;16.72;82.95
11053;BME280;55230;42.602;23.470;2023-07-29T03:49:46;93423.47;;;17.08;79.70
11053;BME280;55230;42.602;23.470;2023-07-29T03:52:12;93423.91;;;17.66;76.88
11053;BME280;55230;42.602;23.470;2023-07-29T03:54:39;93423.44;;;18.50;71.36
11053;BME280;55230;42.602;23.470;2023-07-29T03:57:06;93428.41;;;19.42;65.00
11053;BME280;55230;42.602;23.470;2023-07-29T03:59:33;93420.63;;;20.33;59.57
11053;BME280;55230;42.602;23.470;2023-07-29T04:02:00;93426.66;;;21.28;55.21
11053;BME280;55230;42.602;23.470;2023-07-29T04:04:26;93417.53;;;22.13;52.05
11053;BME280;55230;42.602;23.470;2023-07-29T04:06:53;93415.22;;;22.93;49.79
11053;BME280;55230;42.602;23.470;2023-07-29T04:09:19;93429.81;;;23.53;48.33
11053;BME280;55230;42.602;23.470;2023-07-29T04:11:46;93430.78;;;24.02;46.76
11053;BME280;55230;42.602;23.470;2023-07-29T04:14:12;93428.66;;;24.50;44.76
11053;BME280;55230;42.602;23.470;2023-07-29T04:16:40;93427.97;;;24.98;43.83
11053;BME280;55230;42.602;23.470;2023-07-29T04:19:07;93433.31;;;25.24;42.66
11053;BME280;55230;42.602;23.470;2023-07-29T04:21:33;93431.75;;;25.36;42.13
11053;BME280;55230;42.602;23.470;2023-07-29T04:24:00;93431.81;;;25.51;41.95
11053;BME280;55230;42.602;23.470;2023-07-29T04:26:26;93426.66;;;24.50;43.86
11053;BME280;55230;42.602;23.470;2023-07-29T04:28:53;93426.13;;;24.52;44.23
11053;BME280;55230;42.602;23.470;2023-07-29T04:31:19;93433.00;;;23.91;45.93
11053;BME280;55230;42.602;23.470;2023-07-29T04:33:47;93426.59;;;23.75;46.67
11053;BME280;55230;42.602;23.470;2023-07-29T04:36:14;93424.91;;;24.19;45.81
11053;BME280;55230;42.602;23.470;2023-07-29T04:38:40;93418.88;;;23.74;46.65
11053;BME280;55230;42.602;23.470;2023-07-29T04:41:07;93415.00;;;24.24;45.33
11053;BME280;55230;42.602;23.470;2023-07-29T04:43:34;93424.09;;;23.25;47.43
11053;BME280;55230;42.602;23.470;2023-07-29T04:46:00;93425.44;;;23.06;49.00
11053;BME280;55230;42.602;23.470;2023-07-29T04:48:27;93425.78;;;22.76;48.99
11053;BME280;55230;42.602;23.470;2023-07-29T04:50:54;93428.13;;;22.98;48.40
11053;BME280;55230;42.602;23.470;2023-07-29T04:53:21;93440.44;;;22.34;49.81
11053;BME280;55230;42.602;23.470;2023-07-29T04:55:47;93430.06;;;22.58;48.93
11053;BME280;55230;42.602;23.470;2023-07-29T04:58:14;93439.28;;;22.42;50.39
11053;BME280;55230;42.602;23.470;2023-07-29T05:00:40;93439.09;;;22.85;49.27
11053;BME280;55230;42.602;23.470;2023-07-29T05:03:07;93447.53;;;22.74;49.21
11053;BME280;55230;42.602;23.470;2023-07-29T05:05:33;93445.00;;;22.13;51.63
11053;BME280;55230;42.602;23.470;2023-07-29T05:08:01;93448.63;;;21.46;53.57
11053;BME280;55230;42.602;23.470;2023-07-29T05:10:28;93448.28;;;21.31;53.89
11053;BME280;55230;42.602;23.470;2023-07-29T05:12:54;93450.44;;;21.20;55.57
11053;BME280;55230;42.602;23.470;2023-07-29T05:15:21;93449.34;;;21.28;57.39
11053;BME280;55230;42.602;23.470;2023-07-29T05:17:47;93462.28;;;20.80;59.96
11053;BME280;55230;42.602;23.470;2023-07-29T05:20:14;93459.81;;;20.76;61.25
11053;BME280;55230;42.602;23.470;2023-07-29T05:22:40;93462.38;;;20.44;61.23
11053;BME280;55230;42.602;23.470;2023-07-29T05:25:08;93463.09;;;20.45;62.45
11053;BME280;55230;42.602;23.470;2023-07-29T05:27:41;93469.56;;;20.77;61.01
11053;BME280;55230;42.602;23.470;2023-07-29T05:30:08;93463.50;;;21.32;58.59
11053;BME280;55230;42.602;23.470;2023-07-29T05:32:34;93462.34;;;21.46;56.91
11053;BME280;55230;42.602;23.470;2023-07-29T05:35:01;93456.25;;;21.35;57.59
11053;BME280;55230;42.602;23.470;2023-07-29T05:37:27;93461.91;;;21.42;57.51
11053;BME280;55230;42.602;23.470;2023-07-29T05:39:54;93466.00;;;20.82;59.55
11053;BME280;55230;42.602;23.470;2023-07-29T05:42:22;93473.16;;;20.91;60.39
11053;BME280;55230;42.602;23.470;2023-07-29T05:44:48;93471.94;;;20.62;62.38
11053;BME280;55230;42.602;23.470;2023-07-29T05:47:15;93476.53;;;21.02;61.50
11053;BME280;55230;42.602;23.470;2023-07-29T05:49:41;93474.09;;;21.65;57.96
11053;BME280;55230;42.602;23.470;2023-07-29T05:52:08;93474.16;;;21.60;57.70
11053;BME280;55230;42.602;23.470;2023-07-29T05:54:34;93471.81;;;21.45;57.79
11053;BME280;55230;42.602;23.470;2023-07-29T05:57:01;93473.75;;;21.50;58.30
11053;BME280;55230;42.602;23.470;2023-07-29T05:59:29;93478.81;;;21.46;57.87
11053;BME280;55230;42.602;23.470;2023-07-29T06:01:55;93478.22;;;21.77;57.08
11053;BME280;55230;42.602;23.470;2023-07-29T06:04:22;93481.09;;;22.04;56.70
11053;BME280;55230;42.602;23.470;2023-07-29T06:06:49;93480.66;;;22.00;56.66
11053;BME280;55230;42.602;23.470;2023-07-29T06:09:15;93474.94;;;22.79;55.29
11053;BME280;55230;42.602;23.470;2023-07-29T06:11:42;93478.88;;;22.84;54.37
11053;BME280;55230;42.602;23.470;2023-07-29T06:14:08;93481.53;;;22.08;55.80
11053;BME280;55230;42.602;23.470;2023-07-29T06:16:36;93479.63;;;21.84;56.66
11053;BME280;55230;42.602;23.470;2023-07-29T06:19:03;93475.16;;;22.00;57.09
11053;BME280;55230;42.602;23.470;2023-07-29T06:21:29;93471.81;;;22.07;56.01
11053;BME280;55230;42.602;23.470;2023-07-29T06:23:56;93472.91;;;22.17;55.70
11053;BME280;55230;42.602;23.470;2023-07-29T06:26:22;93474.72;;;21.96;56.96
11053;BME280;55230;42.602;23.470;2023-07-29T06:28:49;93470.31;;;21.68;58.86
11053;BME280;55230;42.602;23.470;2023-07-29T06:31:15;93469.56;;;21.68;59.39
11053;BME280;55230;42.602;23.470;2023-07-29T06:33:43;93472.03;;;22.09;61.06
11053;BME280;55230;42.602;23.470;2023-07-29T06:36:10;93468.00;;;21.72;58.68
11053;BME280;55230;42.602;23.470;2023-07-29T06:38:36;93469.72;;;21.75;58.81
11053;BME280;55230;42.602;23.470;2023-07-29T06:41:03;93472.03;;;22.09;58.16
11053;BME280;55230;42.602;23.470;2023-07-29T06:43:30;93455.88;;;22.55;59.07
11053;BME280;55230;42.602;23.470;2023-07-29T06:45:57;93455.22;;;22.31;56.60
11053;BME280;55230;42.602;23.470;2023-07-29T06:48:23;93460.94;;;22.33;56.99
11053;BME280;55230;42.602;23.470;2023-07-29T06:50:51;93445.66;;;22.50;58.03
11053;BME280;55230;42.602;23.470;2023-07-29T06:53:20;93461.19;;;21.98;58.90
11053;BME280;55230;42.602;23.470;2023-07-29T06:55:46;93459.03;;;22.28;57.81
11053;BME280;55230;42.602;23.470;2023-07-29T06:58:13;93448.94;;;22.17;59.17
11053;BME280;55230;42.602;23.470;2023-07-29T07:00:39;93450.66;;;22.33;56.99
11053;BME280;55230;42.602;23.470;2023-07-29T07:03:06;93452.28;;;22.73;56.28
11053;BME280;55230;42.602;23.470;2023-07-29T07:05:32;93444.19;;;23.20;52.50
11053;BME280;55230;42.602;23.470;2023-07-29T07:08:00;93453.75;;;23.32;52.94
11053;BME280;55230;42.602;23.470;2023-07-29T07:10:27;93446.25;;;23.33;52.63
11053;BME280;55230;42.602;23.470;2023-07-29T07:12:53;93448.88;;;23.12;53.06
11053;BME280;55230;42.602;23.470;2023-07-29T07:15:20;93444.94;;;22.95;54.32
11053;BME280;55230;42.602;23.470;2023-07-29T07:17:46;93447.16;;;23.22;54.30
11053;BME280;55230;42.602;23.470;2023-07-29T07:20:12;93450.13;;;23.24;52.55
11053;BME280;55230;42.602;23.470;2023-07-29T07:22:39;93456.09;;;23.41;52.09
11053;BME280;55230;42.602;23.470;2023-07-29T07:25:07;93449.09;;;23.40;51.97
11053;BME280;55230;42.602;23.470;2023-07-29T07:27:34;93452.28;;;24.04;51.14
11053;BME280;55230;42.602;23.470;2023-07-29T07:30:01;93454.56;;;24.13;50.27
11053;BME280;55230;42.602;23.470;2023-07-29T07:32:27;93457.00;;;23.70;50.54
11053;BME280;55230;42.602;23.470;2023-07-29T07:34:54;93457.38;;;23.87;51.24
11053;BME280;55230;42.602;23.470;2023-07-29T07:37:20;93453.56;;;23.90;49.80
11053;BME280;55230;42.602;23.470;2023-07-29T07:39:46;93447.88;;;23.75;50.23
11053;BME280;55230;42.602;23.470;2023-07-29T07:42:14;93451.16;;;23.86;49.44
11053;BME280;55230;42.602;23.470;2023-07-29T07:44:41;93443.59;;;24.34;48.51
11053;BME280;55230;42.602;23.470;2023-07-29T07:47:07;93456.16;;;24.63;48.67
11053;BME280;55230;42.602;23.470;2023-07-29T07:49:34;93445.09;;;24.55;47.40
11053;BME280;55230;42.602;23.470;2023-07-29T07:52:00;93456.28;;;24.70;47.24
11053;BME280;55230;42.602;23.470;2023-07-29T07:54:27;93454.94;;;24.51;47.92
11053;BME280;55230;42.602;23.470;2023-07-29T07:56:53;93453.03;;;24.59;47.14
11053;BME280;55230;42.602;23.470;2023-07-29T07:59:21;93460.31;;;24.90;46.40
11053;BME280;55230;42.602;23.470;2023-07-29T08:01:48;93460.31;;;24.69;46.15
11053;BME280;55230;42.602;23.470;2023-07-29T08:04:14;93453.94;;;24.61;46.56
11053;BME280;55230;42.602;23.470;2023-07-29T08:06:41;93450.66;;;24.63;46.34
11053;BME280;55230;42.602;23.470;2023-07-29T08:09:07;93443.78;;;24.56;45.96
11053;BME280;55230;42.602;23.470;2023-07-29T08:11:33;93455.59;;;25.26;46.89
11053;BME280;55230;42.602;23.470;2023-07-29T08:14:00;93452.75;;;25.39;43.92
11053;BME280;55230;42.602;23.470;2023-07-29T08:16:28;93452.00;;;25.39;43.87
11053;BME280;55230;42.602;23.470;2023-07-29T08:18:55;93467.09;;;25.38;44.23
11053;BME280;55230;42.602;23.470;2023-07-29T08:21:21;93456.47;;;25.21;44.70
11053;BME280;55230;42.602;23.470;2023-07-29T08:23:48;93453.16;;;25.51;44.18
11053;BME280;55230;42.602;23.470;2023-07-29T08:26:14;93458.88;;;25.45;43.35
11053;BME280;55230;42.602;23.470;2023-07-29T08:28:41;93459.63;;;25.53;43.24
11053;BME280;55230;42.602;23.470;2023-07-29T08:31:08;93460.72;;;25.50;42.22
11053;BME280;55230;42.602;23.470;2023-07-29T08:33:36;93465.84;;;25.46;41.74
11053;BME280;55230;42.602;23.470;2023-07-29T08:36:03;93456.19;;;25.60;40.69
11053;BME280;55230;42.602;23.470;2023-07-29T08:38:29;93456.94;;;26.04;42.32
11053;BME280;55230;42.602;23.470;2023-07-29T08:40:58;93455.97;;;26.60;40.76
11053;BME280;55230;42.602;23.470;2023-07-29T08:43:26;93452.44;;;26.52;40.26
11053;BME280;55230;42.602;23.470;2023-07-29T08:45:54;93447.09;;;26.39;40.25
11053;BME280;55230;42.602;23.470;2023-07-29T08:48:23;93445.13;;;27.07;40.85
11053;BME280;55230;42.602;23.470;2023-07-29T08:50:52;93442.44;;;27.69;37.23
11053;BME280;55230;42.602;23.470;2023-07-29T08:53:19;93441.16;;;28.17;36.24
11053;BME280;55230;42.602;23.470;2023-07-29T08:55:46;93440.13;;;27.28;37.39
11053;BME280;55230;42.602;23.470;2023-07-29T08:58:13;93447.34;;;26.93;38.30
11053;BME280;55230;42.602;23.470;2023-07-29T09:00:40;93455.59;;;26.56;38.59
11053;BME280;55230;42.602;23.470;2023-07-29T09:03:07;93445.09;;;26.62;38.53
11053;BME280;55230;42.602;23.470;2023-07-29T09:05:33;93433.31;;;27.14;37.82
11053;BME280;55230;42.602;23.470;2023-07-29T09:08:01;93434.63;;;27.83;36.30
11053;BME280;55230;42.602;23.470;2023-07-29T09:10:28;93440.50;;;28.34;34.62
11053;BME280;55230;42.602;23.470;2023-07-29T09:12:54;93438.94;;;28.56;36.09
11053;BME280;55230;42.602;23.470;2023-07-29T09:15:27;93425.88;;;28.41;36.89
11053;BME280;55230;42.602;23.470;2023-07-29T09:17:55;93432.47;;;28.21;34.14
11053;BME280;55230;42.602;23.470;2023-07-29T09:20:23;93440.81;;;28.13;34.50
11053;BME280;55230;42.602;23.470;2023-07-29T09:22:50;93432.13;;;27.62;35.27
11053;BME280;55230;42.602;23.470;2023-07-29T09:25:23;93436.97;;;27.39;35.14
11053;BME280;55230;42.602;23.470;2023-07-29T09:27:49;93424.44;;;27.46;35.85
11053;BME280;55230;42.602;23.470;2023-07-29T09:30:16;93425.88;;;27.47;35.25
11053;BME280;55230;42.602;23.470;2023-07-29T09:32:43;93424.06;;;27.26;36.83
11053;BME280;55230;42.602;23.470;2023-07-29T09:35:09;93420.34;;;27.54;36.20
11053;BME280;55230;42.602;23.470;2023-07-29T09:37:36;93415.44;;;28.24;35.10
11053;BME280;55230;42.602;23.470;2023-07-29T09:40:04;93417.25;;;27.97;35.34
11053;BME280;55230;42.602;23.470;2023-07-29T09:42:32;93407.81;;;27.46;36.11
11053;BME280;55230;42.602;23.470;2023-07-29T09:44:59;93406.25;;;27.60;35.61
11053;BME280;55230;42.602;23.470;2023-07-29T09:47:25;93413.34;;;28.32;35.40
11053;BME280;55230;42.602;23.470;2023-07-29T09:49:52;93412.84;;;28.26;33.85
11053;BME280;55230;42.602;23.470;2023-07-29T09:52:20;93409.53;;;28.20;33.64
11053;BME280;55230;42.602;23.470;2023-07-29T09:54:47;93413.06;;;28.21;33.87
11053;BME280;55230;42.602;23.470;2023-07-29T09:57:14;93406.84;;;28.37;34.53
11053;BME280;55230;42.602;23.470;2023-07-29T09:59:44;93410.78;;;28.84;33.87
11053;BME280;55230;42.602;23.470;2023-07-29T10:02:19;93396.69;;;29.31;32.63
11053;BME280;55230;42.602;23.470;2023-07-29T10:04:46;93403.41;;;28.79;32.35
11053;BME280;55230;42.602;23.470;2023-07-29T10:07:13;93401.63;;;28.74;33.08
11053;BME280;55230;42.602;23.470;2023-07-29T10:09:40;93402.97;;;29.14;32.26
11053;BME280;55230;42.602;23.470;2023-07-29T10:12:08;93391.78;;;29.39;31.71
11053;BME280;55230;42.602;23.470;2023-07-29T10:14:36;93397.31;;;28.56;31.87
11053;BME280;55230;42.602;23.470;2023-07-29T10:17:05;93399.00;;;28.76;32.55
11053;BME280;55230;42.602;23.470;2023-07-29T10:19:32;93389.50;;;29.28;31.56
11053;BME280;55230;42.602;23.470;2023-07-29T10:22:00;93381.16;;;29.62;31.27
11053;BME280;55230;42.602;23.470;2023-07-29T10:24:29;93386.56;;;29.01;32.02
11053;BME280;55230;42.602;23.470;2023-07-29T10:26:57;93377.91;;;28.48;32.40
11053;BME280;55230;42.602;23.470;2023-07-29T10:29:24;93371.44;;;28.78;31.81
11053;BME280;55230;42.602;23.470;2023-07-29T10:31:52;93379.75;;;28.78;32.18
11053;BME280;55230;42.602;23.470;2023-07-29T10:34:20;93366.13;;;29.14;32.07
11053;BME280;55230;42.602;23.470;2023-07-29T10:36:48;93366.78;;;29.56;31.92
11053;BME280;55230;42.602;23.470;2023-07-29T10:39:15;93358.91;;;29.62;30.97
11053;BME280;55230;42.602;23.470;2023-07-29T10:41:54;93362.78;;;30.10;30.99
11053;BME280;55230;42.602;23.470;2023-07-29T10:47:10;93359.09;;;30.97;29.38
11053;BME280;55230;42.602;23.470;2023-07-29T10:49:39;93355.72;;;29.83;29.39
11053;BME280;55230;42.602;23.470;2023-07-29T10:52:06;93347.34;;;29.73;30.49
11053;BME280;55230;42.602;23.470;2023-07-29T10:54:35;93346.81;;;29.84;30.25
11053;BME280;55230;42.602;23.470;2023-07-29T10:57:07;93343.50;;;30.39;31.19
11053;BME280;55230;42.602;23.470;2023-07-29T10:59:34;93340.03;;;30.94;29.77
11053;BME280;55230;42.602;23.470;2023-07-29T11:02:01;93344.53;;;30.43;29.65
11053;BME280;55230;42.602;23.470;2023-07-29T11:04:27;93344.81;;;29.94;29.98
11053;BME280;55230;42.602;23.470;2023-07-29T11:09:53;93344.06;;;29.67;29.17
11053;BME280;55230;42.602;23.470;2023-07-29T11:12:33;93334.50;;;29.61;29.32
11053;BME280;55230;42.602;23.470;2023-07-29T11:15:00;93333.69;;;30.21;29.88
11053;BME280;55230;42.602;23.470;2023-07-29T11:17:28;93330.34;;;30.95;31.15
11053;BME280;55230;42.602;23.470;2023-07-29T11:19:56;93326.47;;;31.45;28.81
11053;BME280;55230;42.602;23.470;2023-07-29T11:22:25;93326.44;;;31.64;27.08
11053;BME280;55230;42.602;23.470;2023-07-29T11:24:53;93326.50;;;30.81;28.05
11053;BME280;55230;42.602;23.470;2023-07-29T11:27:20;93325.00;;;30.70;27.77
11053;BME280;55230;42.602;23.470;2023-07-29T11:29:47;93325.06;;;30.53;28.61
11053;BME280;55230;42.602;23.470;2023-07-29T11:32:13;93327.34;;;29.84;28.97
11053;BME280;55230;42.602;23.470;2023-07-29T11:34:41;93333.94;;;29.45;29.57
11053;BME280;55230;42.602;23.470;2023-07-29T11:37:09;93317.44;;;29.30;29.55
11053;BME280;55230;42.602;23.470;2023-07-29T11:39:39;93324.19;;;29.53;29.83
11053;BME280;55230;42.602;23.470;2023-07-29T11:42:07;93321.03;;;29.40;29.61
11053;BME280;55230;42.602;23.470;2023-07-29T11:44:36;93323.25;;;29.24;29.79
11053;BME280;55230;42.602;23.470;2023-07-29T11:47:05;93315.28;;;29.55;29.54
11053;BME280;55230;42.602;23.470;2023-07-29T11:49:32;93324.47;;;30.45;29.99
11053;BME280;55230;42.602;23.470;2023-07-29T11:51:59;93312.63;;;30.18;28.82
11053;BME280;55230;42.602;23.470;2023-07-29T11:54:26;93310.94;;;30.32;28.50
11053;BME280;55230;42.602;23.470;2023-07-29T11:56:52;93315.16;;;30.59;28.75
11053;BME280;55230;42.602;23.470;2023-07-29T11:59:20;93310.13;;;30.48;28.72
11053;BME280;55230;42.602;23.470;2023-07-29T12:01:47;93302.84;;;30.63;27.85
11053;BME280;55230;42.602;23.470;2023-07-29T12:04:14;93310.59;;;30.64;28.32
11053;BME280;55230;42.602;23.470;2023-07-29T12:06:40;93306.03;;;30.23;28.69
11053;BME280;55230;42.602;23.470;2023-07-29T12:09:07;93293.56;;;30.50;28.42
11053;BME280;55230;42.602;23.470;2023-07-29T12:11:34;93290.84;;;30.70;28.97
11053;BME280;55230;42.602;23.470;2023-07-29T12:14:01;93291.66;;;31.18;28.30
11053;BME280;55230;42.602;23.470;2023-07-29T12:16:29;93282.69;;;31.77;28.61
11053;BME280;55230;42.602;23.470;2023-07-29T12:19:00;93286.84;;;31.47;27.51
11053;BME280;55230;42.602;23.470;2023-07-29T12:21:26;93278.59;;;31.68;27.55
11053;BME280;55230;42.602;23.470;2023-07-29T12:23:53;93277.28;;;31.69;27.32
11053;BME280;55230;42.602;23.470;2023-07-29T12:26:19;93278.34;;;32.23;29.57
11053;BME280;55230;42.602;23.470;2023-07-29T12:28:46;93273.72;;;31.88;26.43
11053;BME280;55230;42.602;23.470;2023-07-29T12:31:12;93281.97;;;31.00;26.96
11053;BME280;55230;42.602;23.470;2023-07-29T12:33:40;93270.25;;;31.11;27.08
11053;BME280;55230;42.602;23.470;2023-07-29T12:36:08;93273.31;;;31.05;27.38
11053;BME280;55230;42.602;23.470;2023-07-29T12:38:35;93276.31;;;30.61;27.15
11053;BME280;55230;42.602;23.470;2023-07-29T12:41:02;93268.72;;;30.72;27.23
11053;BME280;55230;42.602;23.470;2023-07-29T12:43:28;93272.44;;;30.84;29.36
11053;BME280;55230;42.602;23.470;2023-07-29T12:45:56;93268.38;;;30.48;27.42
11053;BME280;55230;42.602;23.470;2023-07-29T12:48:23;93275.22;;;30.84;28.95
11053;BME280;55230;42.602;23.470;2023-07-29T12:50:50;93274.19;;;30.98;28.19
11053;BME280;55230;42.602;23.470;2023-07-29T12:53:17;93280.09;;;30.56;26.79
11053;BME280;55230;42.602;23.470;2023-07-29T12:55:44;93278.91;;;30.96;27.26